Youngstown, Ohio
Current Conditions -  °F | °C
As of 6:51 AM on Monday 24 Nov 2014 (Local Time) from KYNG Reporting Station
Overcast Overcast  
Wind Chill: 58°   Ceiling: 2000
Heat Index: 58°   Visibility: 10mi
Dew Point: 52°   Wind: 13mph
Humidity: 81%   Direction: 200°SSW
Pressure: 29.36"   Gusts: 21mph
Location:  41.1°N, 80.65°W
Report Text: KYNG 241151Z 20011G18KT 10SM FEW011 BKN020 OVC038 14/11 A2936 RMK AO2 PK WND 20028/1124 SLP940 60002 70024 T01440111 10150 20122 51017
Loading
Personal Weather Stations






























Interactive Weather Map New forecast layout! Learn more

10-Day Weather Forecast

Advertisements
Track Severe Weather on mobile